An Run Da 2 — BHNX — position and weather

sailwx.info

Track history (hours):
 
Tides and Currents Weather Stations Pressure Air Temp Water Temp Dewpoint Dewpoint Depression Visibility Wind Speed Wind Dir Waves Ship Positions

An Run Da 2

Last reported at 2014-Nov-24 17:31 UTC. Time now 2014-Nov-24 18:05 UTC.
Position N 30°40' E 122°25'.

Length 147 m; draft 5 m.

Type: Cargo ship. MMSI: 413360230.

Date/timePositionNaut miles runAvg speedWind from/ knotsBaromVisibWave heightAir tempDewpointWater temp
2014-Nov-24 17:31N 30°40' E 122°25'3 1.3
2014-Nov-24 15:24N 30°38' E 122°23'0 0.0
2014-Nov-24 08:31N 30°38' E 122°24'0 0.0
2014-Nov-24 07:33N 30°38' E 122°24'0 0.1
2014-Nov-24 06:30N 30°38' E 122°23'0 0.1
2014-Nov-24 05:27N 30°38' E 122°23'0 0.1
2014-Nov-24 04:27N 30°38' E 122°23'0 0.0
2014-Nov-24 03:24N 30°38' E 122°23'0 0.0
2014-Nov-24 02:33N 30°38' E 122°23'0 0.0
2014-Nov-24 01:30N 30°38' E 122°23'0 0.1
2014-Nov-23 22:33N 30°38' E 122°23'0 0.0
2014-Nov-23 15:33N 30°38' E 122°23'0 0.0
2014-Nov-23 14:21N 30°38' E 122°23'0 0.0
2014-Nov-23 02:08N 30°38' E 122°23'0 0.1
2014-Nov-23 01:32N 30°38' E 122°23'1 0.1
2014-Nov-22 10:29N 30°38' E 122°24'52 8.2
2014-Nov-22 04:10N 29°48' E 122°38'711.0
2014-Nov-22 03:33N 29°41' E 122°37'2510.7
2014-Nov-22 01:16N 29°18' E 122°28'327 9.4
2014-Nov-20 14:31N 24°42' E 119°12'8 8.0
2014-Nov-20 13:33N 24°37' E 119°05'43 8.5
2014-Nov-20 08:32N 24°09' E 118°30'9 9.2
2014-Nov-20 07:32N 24°03' E 118°22'9 8.6
2014-Nov-20 06:29N 23°57' E 118°15'18 8.5
2014-Nov-20 04:21N 23°45' E 117°60'24 8.6
2014-Nov-20 01:31N 23°29' E 117°40'42 9.5
2014-Nov-19 21:09N 23°03' E 117°04'8 8.4
2014-Nov-19 20:10N 22°58' E 116°57'13 7.8
2014-Nov-19 18:33N 22°53' E 116°44'158 6.5
2014-Nov-18 18:17N 22°03' E 114°02'16 8.5
2014-Nov-18 16:27N 21°54' E 113°49'9 9.8
2014-Nov-18 15:32N 21°51' E 113°39'  
Track history (hours):
 
Tides and Currents Weather Stations Pressure Air Temp Water Temp Dewpoint Dewpoint Depression Visibility Wind Speed Wind Dir Waves Ship Positions

An Run Da 2

Last reported at 2014-Nov-24 17:31 UTC. Time now 2014-Nov-24 18:05 UTC.
Position N 30°40' E 122°25'.

Length 147 m; draft 5 m.

Type: Cargo ship. MMSI: 413360230.

Date/timePositionNaut miles runAvg speedWind from/ knotsBaromVisibWave heightAir tempDewpointWater temp
2014-Nov-24 17:31N 30°40' E 122°25'3 1.3
2014-Nov-24 15:24N 30°38' E 122°23'0 0.0
2014-Nov-24 08:31N 30°38' E 122°24'0 0.0
2014-Nov-24 07:33N 30°38' E 122°24'0 0.1
2014-Nov-24 06:30N 30°38' E 122°23'0 0.1
2014-Nov-24 05:27N 30°38' E 122°23'0 0.1
2014-Nov-24 04:27N 30°38' E 122°23'0 0.0
2014-Nov-24 03:24N 30°38' E 122°23'0 0.0
2014-Nov-24 02:33N 30°38' E 122°23'0 0.0
2014-Nov-24 01:30N 30°38' E 122°23'0 0.1
2014-Nov-23 22:33N 30°38' E 122°23'0 0.0
2014-Nov-23 15:33N 30°38' E 122°23'0 0.0
2014-Nov-23 14:21N 30°38' E 122°23'0 0.0
2014-Nov-23 02:08N 30°38' E 122°23'0 0.1
2014-Nov-23 01:32N 30°38' E 122°23'1 0.1
2014-Nov-22 10:29N 30°38' E 122°24'52 8.2
2014-Nov-22 04:10N 29°48' E 122°38'711.0
2014-Nov-22 03:33N 29°41' E 122°37'2510.7
2014-Nov-22 01:16N 29°18' E 122°28'327 9.4
2014-Nov-20 14:31N 24°42' E 119°12'8 8.0
2014-Nov-20 13:33N 24°37' E 119°05'43 8.5
2014-Nov-20 08:32N 24°09' E 118°30'9 9.2
2014-Nov-20 07:32N 24°03' E 118°22'9 8.6
2014-Nov-20 06:29N 23°57' E 118°15'18 8.5
2014-Nov-20 04:21N 23°45' E 117°60'24 8.6
2014-Nov-20 01:31N 23°29' E 117°40'42 9.5
2014-Nov-19 21:09N 23°03' E 117°04'8 8.4
2014-Nov-19 20:10N 22°58' E 116°57'13 7.8
2014-Nov-19 18:33N 22°53' E 116°44'158 6.5
2014-Nov-18 18:17N 22°03' E 114°02'16 8.5
2014-Nov-18 16:27N 21°54' E 113°49'9 9.8
2014-Nov-18 15:32N 21°51' E 113°39'  

Dump ship's entire track history